Time;durP1;ratioP1;P1;durP2;ratioP2;P2;SDS_P1;SDS_P2;PMS_P1;PMS_P2;Temp;Humidity;BMP_temperature;BMP_pressure;BME280_temperature;BME280_humidity;BME280_pressure;Samples;Min_cycle;Max_cycle;Signal;HPM_P1;HPM_P2
2022/12/30 00:00:15;;;;;;;27.92;5.30;;;;;;;;;;5070834;28;20507;-74
2022/12/30 00:02:41;;;;;;;24.52;5.10;;;;;;;;;;5087984;28;20767;-74
2022/12/30 00:05:07;;;;;;;22.52;4.65;;;;;;;;;;5073878;28;20448;-75
2022/12/30 00:07:36;;;;;;;21.17;4.50;;;;;;;;;;5071772;28;20510;-74
2022/12/30 00:10:03;;;;;;;27.05;4.82;;;;;;;;;;5089524;28;20463;-75
2022/12/30 00:35:02;;;;;;;21.58;4.53;;;;;;;;;;5080866;28;20426;-75
2022/12/30 00:37:29;;;;;;;25.75;4.70;;;;;;;;;;5068893;28;20505;-74
2022/12/30 00:39:55;;;;;;;27.27;5.00;;;;;;;;;;5070708;28;20417;-75
2022/12/30 00:45:06;;;;;;;22.35;4.70;;;;;;;;;;5087225;28;20905;-75
2022/12/30 00:47:33;;;;;;;23.42;4.43;;;;;;;;;;5088025;28;20422;-75
2022/12/30 00:58:14;;;;;;;26.88;4.90;;;;;;;;;;5079098;28;20418;-75
2022/12/30 01:00:42;;;;;;;22.85;4.53;;;;;;;;;;5090009;28;20414;-74
2022/12/30 01:03:08;;;;;;;23.35;4.20;;;;;;;;;;5070710;28;20425;-74
2022/12/30 01:05:37;;;;;;;21.40;4.23;;;;;;;;;;5070041;28;20502;-74
2022/12/30 01:08:03;;;;;;;20.27;4.95;;;;;;;;;;5071759;28;20501;-74
2022/12/30 01:10:29;;;;;;;26.10;4.82;;;;;;;;;;5087879;28;20512;-75
2022/12/30 01:12:55;;;;;;;24.17;4.25;;;;;;;;;;5086015;28;20487;-75
2022/12/30 01:15:21;;;;;;;21.52;4.78;;;;;;;;;;5090360;28;20455;-75
2022/12/30 01:17:47;;;;;;;21.95;4.43;;;;;;;;;;5085740;28;20418;-74
2022/12/30 01:20:13;;;;;;;24.00;4.40;;;;;;;;;;5063009;28;20492;-74
2022/12/30 01:22:39;;;;;;;20.95;4.38;;;;;;;;;;5040302;28;20996;-74
2022/12/30 01:25:06;;;;;;;21.88;4.40;;;;;;;;;;5089150;28;20411;-75
2022/12/30 01:27:32;;;;;;;21.20;4.53;;;;;;;;;;5083442;28;20421;-75
2022/12/30 01:29:59;;;;;;;22.02;4.63;;;;;;;;;;5090286;28;20809;-75
2022/12/30 01:32:28;;;;;;;22.10;4.22;;;;;;;;;;5070773;28;20445;-74
2022/12/30 01:34:55;;;;;;;25.40;4.60;;;;;;;;;;5088193;28;20418;-75
2022/12/30 01:37:21;;;;;;;26.60;4.65;;;;;;;;;;5087930;28;20421;-75
2022/12/30 01:39:47;;;;;;;21.27;4.70;;;;;;;;;;5089330;28;20426;-75
2022/12/30 01:42:21;;;;;;;22.85;4.85;;;;;;;;;;5071679;28;20913;-75
2022/12/30 01:44:50;;;;;;;22.33;4.18;;;;;;;;;;5073274;28;20912;-75
2022/12/30 01:47:40;;;;;;;23.40;4.47;;;;;;;;;;5069720;28;20421;-75
2022/12/30 01:50:12;;;;;;;21.40;4.28;;;;;;;;;;5067527;28;20737;-75
2022/12/30 01:52:40;;;;;;;22.35;4.35;;;;;;;;;;5077282;28;20432;-75
2022/12/30 01:55:09;;;;;;;23.45;4.53;;;;;;;;;;5088359;28;20424;-75
2022/12/30 01:57:36;;;;;;;24.67;4.37;;;;;;;;;;5072730;28;20876;-75
2022/12/30 02:00:03;;;;;;;26.98;5.28;;;;;;;;;;5087830;28;20505;-75
2022/12/30 02:02:30;;;;;;;22.10;4.65;;;;;;;;;;5088389;28;20424;-75
2022/12/30 02:04:56;;;;;;;26.60;4.85;;;;;;;;;;5091577;28;20410;-75
2022/12/30 02:07:22;;;;;;;21.70;4.35;;;;;;;;;;5093164;28;20414;-74
2022/12/30 02:09:48;;;;;;;24.15;4.60;;;;;;;;;;5074536;28;20449;-75
2022/12/30 02:12:14;;;;;;;25.88;4.75;;;;;;;;;;5104499;28;21007;-75
2022/12/30 02:14:41;;;;;;;24.02;4.38;;;;;;;;;;5088688;28;20410;-75
2022/12/30 02:17:14;;;;;;;22.17;4.43;;;;;;;;;;5075266;28;20456;-75
2022/12/30 02:19:52;;;;;;;23.27;4.30;;;;;;;;;;5075531;28;20780;-75
2022/12/30 02:22:18;;;;;;;24.00;4.45;;;;;;;;;;5092679;28;20456;-75
2022/12/30 02:24:44;;;;;;;26.67;4.72;;;;;;;;;;5073837;28;20425;-75
2022/12/30 02:27:19;;;;;;;22.42;4.25;;;;;;;;;;5087962;28;20947;-75
2022/12/30 02:30:04;;;;;;;22.50;4.32;;;;;;;;;;5073956;28;20417;-75
2022/12/30 02:32:36;;;;;;;24.40;4.35;;;;;;;;;;5075030;28;20450;-75
2022/12/30 02:35:15;;;;;;;24.02;4.00;;;;;;;;;;5091344;28;20414;-75
2022/12/30 02:37:51;;;;;;;24.33;4.53;;;;;;;;;;5092430;28;20979;-75
2022/12/30 02:40:25;;;;;;;22.80;4.70;;;;;;;;;;5086031;28;20424;-75
2022/12/30 02:45:51;;;;;;;21.35;3.70;;;;;;;;;;5092228;28;20425;-75
2022/12/30 02:48:28;;;;;;;23.10;4.28;;;;;;;;;;5092412;28;20436;-75
2022/12/30 02:53:40;;;;;;;21.92;4.30;;;;;;;;;;5077535;28;20425;-75
2022/12/30 02:56:06;;;;;;;24.73;4.05;;;;;;;;;;5092062;28;20417;-75
2022/12/30 02:58:34;;;;;;;26.92;4.72;;;;;;;;;;5078834;28;20422;-75
2022/12/30 03:03:58;;;;;;;19.98;4.43;;;;;;;;;;5091685;28;20841;-75
2022/12/30 03:06:36;;;;;;;25.25;4.65;;;;;;;;;;5094191;28;20422;-74
2022/12/30 03:09:08;;;;;;;22.73;4.45;;;;;;;;;;5083857;28;20461;-75
2022/12/30 03:11:57;;;;;;;28.42;4.60;;;;;;;;;;5059999;28;20425;-75
2022/12/30 03:14:23;;;;;;;22.50;4.80;;;;;;;;;;5090500;28;20781;-75
2022/12/30 03:16:52;;;;;;;21.45;4.32;;;;;;;;;;5090985;28;20977;-74
2022/12/30 03:19:20;;;;;;;31.63;5.07;;;;;;;;;;5087872;28;20421;-75
2022/12/30 03:21:48;;;;;;;22.77;4.53;;;;;;;;;;5090164;28;20446;-75
2022/12/30 03:27:08;;;;;;;23.65;4.78;;;;;;;;;;5080796;28;20899;-75
2022/12/30 03:29:39;;;;;;;26.63;5.30;;;;;;;;;;5083763;28;20474;-75
2022/12/30 03:32:07;;;;;;;25.63;4.88;;;;;;;;;;5090230;28;20418;-75
2022/12/30 03:34:34;;;;;;;27.17;4.70;;;;;;;;;;5088602;28;20497;-75
2022/12/30 03:37:16;;;;;;;22.80;4.82;;;;;;;;;;5088350;28;20831;-75
2022/12/30 03:39:45;;;;;;;21.73;4.90;;;;;;;;;;5088855;28;20429;-75
2022/12/30 03:42:11;;;;;;;23.23;4.90;;;;;;;;;;5088406;28;20426;-75
2022/12/30 03:44:39;;;;;;;27.73;5.83;;;;;;;;;;5062351;28;20914;-76
2022/12/30 03:47:10;;;;;;;24.65;5.35;;;;;;;;;;5088338;28;20424;-75
2022/12/30 03:49:38;;;;;;;23.23;5.22;;;;;;;;;;5086528;28;20458;-76
2022/12/30 03:52:04;;;;;;;23.17;5.18;;;;;;;;;;5090269;28;20488;-75
2022/12/30 03:54:30;;;;;;;25.38;6.10;;;;;;;;;;5091638;28;20893;-75
2022/12/30 03:56:56;;;;;;;23.88;5.45;;;;;;;;;;5056055;28;20432;-75
2022/12/30 03:59:22;;;;;;;20.52;5.00;;;;;;;;;;5073290;28;20414;-76
2022/12/30 04:01:48;;;;;;;25.90;5.43;;;;;;;;;;5054134;28;20423;-75
2022/12/30 04:04:14;;;;;;;21.95;5.13;;;;;;;;;;5072241;28;20414;-75
2022/12/30 04:06:40;;;;;;;24.42;5.45;;;;;;;;;;5086031;28;20841;-75
2022/12/30 04:09:06;;;;;;;23.30;5.07;;;;;;;;;;5073791;28;20409;-75
2022/12/30 04:11:32;;;;;;;23.33;4.82;;;;;;;;;;5072192;28;20433;-75
2022/12/30 04:13:58;;;;;;;24.15;5.95;;;;;;;;;;5089977;28;20822;-75
2022/12/30 04:16:24;;;;;;;22.70;5.00;;;;;;;;;;5071900;28;20414;-75
2022/12/30 04:18:50;;;;;;;22.58;5.03;;;;;;;;;;5076057;28;20429;-75
2022/12/30 04:21:16;;;;;;;23.40;4.80;;;;;;;;;;5073793;28;20402;-75
2022/12/30 04:23:42;;;;;;;17.00;4.20;;;;;;;;;;5045265;28;20416;-75
2022/12/30 04:26:09;;;;;;;22.70;5.30;;;;;;;;;;5055901;28;20414;-75
2022/12/30 04:28:35;;;;;;;23.00;4.80;;;;;;;;;;5088947;28;20439;-75
2022/12/30 04:31:01;;;;;;;20.73;5.75;;;;;;;;;;5054128;28;20423;-75
2022/12/30 04:33:27;;;;;;;23.77;4.47;;;;;;;;;;5086658;28;20429;-75
2022/12/30 04:35:53;;;;;;;20.80;4.50;;;;;;;;;;5090546;28;20476;-75
2022/12/30 04:38:19;;;;;;;21.25;4.25;;;;;;;;;;5071975;28;20410;-75
2022/12/30 04:40:45;;;;;;;19.30;4.88;;;;;;;;;;5081386;28;20475;-75
2022/12/30 04:43:11;;;;;;;17.98;4.55;;;;;;;;;;5086223;28;20421;-75
2022/12/30 04:45:40;;;;;;;18.95;4.32;;;;;;;;;;5088618;28;20475;-75
2022/12/30 04:48:06;;;;;;;21.17;4.43;;;;;;;;;;5089084;28;20948;-75
2022/12/30 04:50:32;;;;;;;24.13;4.80;;;;;;;;;;5073920;28;20394;-75
2022/12/30 04:52:58;;;;;;;24.95;4.80;;;;;;;;;;5086879;28;20917;-75
2022/12/30 04:55:24;;;;;;;18.08;4.90;;;;;;;;;;5076804;28;20416;-75
2022/12/30 04:57:51;;;;;;;23.23;5.05;;;;;;;;;;5086126;28;20410;-75
2022/12/30 05:00:17;;;;;;;20.75;5.00;;;;;;;;;;5088771;28;20543;-75
2022/12/30 05:02:43;;;;;;;22.92;5.68;;;;;;;;;;5061967;28;20883;-75
2022/12/30 05:05:09;;;;;;;20.88;5.60;;;;;;;;;;5053598;28;20412;-75
2022/12/30 05:07:35;;;;;;;20.27;5.75;;;;;;;;;;5085566;28;20418;-75
2022/12/30 05:10:01;;;;;;;26.08;6.68;;;;;;;;;;5089895;28;20428;-75
2022/12/30 05:12:27;;;;;;;21.38;7.40;;;;;;;;;;5096788;28;20434;-75
2022/12/30 05:14:54;;;;;;;19.17;7.57;;;;;;;;;;5075984;28;20414;-74
2022/12/30 05:17:20;;;;;;;23.02;8.50;;;;;;;;;;5088069;28;20418;-75
2022/12/30 05:19:46;;;;;;;22.60;8.10;;;;;;;;;;5073406;28;20425;-76
2022/12/30 05:22:12;;;;;;;26.15;9.27;;;;;;;;;;5060477;28;20798;-76
2022/12/30 05:27:22;;;;;;;23.60;7.20;;;;;;;;;;5089368;28;20812;-75
2022/12/30 05:29:48;;;;;;;19.67;7.00;;;;;;;;;;5088745;28;20437;-76
2022/12/30 05:32:15;;;;;;;19.65;6.65;;;;;;;;;;5070176;28;20479;-75
2022/12/30 05:34:41;;;;;;;22.63;7.68;;;;;;;;;;5072670;28;20428;-76
2022/12/30 05:37:07;;;;;;;21.63;6.80;;;;;;;;;;5091073;28;20936;-75
2022/12/30 05:39:33;;;;;;;22.20;7.18;;;;;;;;;;5076773;28;20505;-76
2022/12/30 05:41:59;;;;;;;21.80;7.25;;;;;;;;;;5092796;28;20422;-75
2022/12/30 05:44:25;;;;;;;18.00;7.03;;;;;;;;;;5076152;28;20421;-75
2022/12/30 05:46:51;;;;;;;21.67;7.35;;;;;;;;;;5094651;28;20421;-76
2022/12/30 05:49:17;;;;;;;20.35;7.18;;;;;;;;;;5093561;28;20719;-75
2022/12/30 05:51:44;;;;;;;24.88;6.90;;;;;;;;;;5089426;28;20422;-76
2022/12/30 05:54:10;;;;;;;19.48;7.15;;;;;;;;;;5075590;28;20413;-76
2022/12/30 05:56:36;;;;;;;19.58;6.47;;;;;;;;;;5056628;28;20419;-76
2022/12/30 05:59:02;;;;;;;22.17;6.70;;;;;;;;;;5063914;28;20512;-75
2022/12/30 06:01:28;;;;;;;22.83;6.65;;;;;;;;;;5076289;28;20418;-76
2022/12/30 06:03:55;;;;;;;19.52;6.85;;;;;;;;;;5056413;28;20808;-76
2022/12/30 06:06:22;;;;;;;23.52;6.75;;;;;;;;;;5092936;28;20418;-75
2022/12/30 06:08:48;;;;;;;22.53;6.40;;;;;;;;;;5074579;28;20424;-75
2022/12/30 06:11:14;;;;;;;22.52;6.40;;;;;;;;;;5093614;28;20410;-75
2022/12/30 06:13:40;;;;;;;26.17;6.90;;;;;;;;;;5073266;28;20437;-75
2022/12/30 06:16:06;;;;;;;18.38;5.70;;;;;;;;;;5056554;28;20403;-76
2022/12/30 06:18:32;;;;;;;22.85;6.97;;;;;;;;;;5074368;28;20433;-76
2022/12/30 06:20:59;;;;;;;19.02;6.55;;;;;;;;;;5090638;28;20410;-75
2022/12/30 06:23:25;;;;;;;28.25;6.50;;;;;;;;;;5086536;28;20493;-75
2022/12/30 06:25:57;;;;;;;17.92;6.38;;;;;;;;;;5074167;28;20410;-75
2022/12/30 06:28:24;;;;;;;25.20;7.07;;;;;;;;;;5074647;28;20414;-75
2022/12/30 06:30:50;;;;;;;20.27;5.60;;;;;;;;;;5093524;28;20418;-75
2022/12/30 06:33:17;;;;;;;20.73;5.47;;;;;;;;;;5090326;28;20471;-76
2022/12/30 06:35:43;;;;;;;68.35;9.45;;;;;;;;;;5090586;28;20738;-75
2022/12/30 06:38:09;;;;;;;20.42;6.45;;;;;;;;;;5075388;28;20410;-75
2022/12/30 06:40:35;;;;;;;33.23;7.23;;;;;;;;;;5068166;28;20416;-75
2022/12/30 06:43:01;;;;;;;44.35;7.70;;;;;;;;;;5069385;28;20475;-75
2022/12/30 06:45:28;;;;;;;27.33;6.30;;;;;;;;;;5090363;28;20935;-75
2022/12/30 06:47:54;;;;;;;22.88;6.65;;;;;;;;;;5089451;28;20418;-75
2022/12/30 06:50:20;;;;;;;22.98;5.40;;;;;;;;;;5091034;28;20447;-76
2022/12/30 06:52:46;;;;;;;27.70;7.33;;;;;;;;;;5071776;28;20485;-75
2022/12/30 06:55:12;;;;;;;37.72;8.95;;;;;;;;;;5091594;28;20430;-76
2022/12/30 06:57:38;;;;;;;27.80;5.90;;;;;;;;;;5056450;28;20416;-75
2022/12/30 07:00:05;;;;;;;23.02;5.72;;;;;;;;;;5076845;28;20422;-76
2022/12/30 07:02:31;;;;;;;20.77;5.32;;;;;;;;;;5074851;28;20439;-76
2022/12/30 07:04:57;;;;;;;21.33;4.93;;;;;;;;;;5085118;28;20425;-75
2022/12/30 07:07:23;;;;;;;26.52;4.97;;;;;;;;;;5072080;28;20830;-75
2022/12/30 07:09:49;;;;;;;18.52;4.88;;;;;;;;;;5090981;28;20773;-75
2022/12/30 07:12:16;;;;;;;17.65;4.80;;;;;;;;;;5090315;28;20426;-75
2022/12/30 07:14:42;;;;;;;20.70;4.93;;;;;;;;;;5055226;28;20429;-74
2022/12/30 07:17:08;;;;;;;17.73;4.60;;;;;;;;;;5089821;28;20418;-75
2022/12/30 07:19:34;;;;;;;18.03;4.77;;;;;;;;;;5092786;28;20933;-73
2022/12/30 07:22:00;;;;;;;20.02;5.00;;;;;;;;;;5073951;28;20417;-74
2022/12/30 07:24:26;;;;;;;18.23;4.30;;;;;;;;;;5092572;28;20432;-74
2022/12/30 07:26:52;;;;;;;18.63;4.50;;;;;;;;;;5089419;28;20417;-74
2022/12/30 07:29:20;;;;;;;21.20;4.63;;;;;;;;;;5090652;28;20414;-74
2022/12/30 07:31:46;;;;;;;19.20;5.32;;;;;;;;;;5090616;28;20541;-75
2022/12/30 07:34:12;;;;;;;28.27;4.93;;;;;;;;;;5083147;28;20435;-75
2022/12/30 07:36:38;;;;;;;19.00;4.20;;;;;;;;;;5056413;28;20403;-76
2022/12/30 07:39:06;;;;;;;17.75;4.15;;;;;;;;;;5075729;28;20415;-76
2022/12/30 07:41:32;;;;;;;24.37;4.10;;;;;;;;;;5064645;28;20512;-76
2022/12/30 07:43:58;;;;;;;15.77;4.07;;;;;;;;;;5078133;28;20501;-76
2022/12/30 07:46:24;;;;;;;20.02;4.25;;;;;;;;;;5090881;28;20483;-76
2022/12/30 07:48:51;;;;;;;20.25;4.45;;;;;;;;;;5074832;28;20430;-76
2022/12/30 07:51:18;;;;;;;17.83;4.05;;;;;;;;;;5087359;28;21069;-78
2022/12/30 07:53:44;;;;;;;18.30;4.60;;;;;;;;;;5090015;28;20867;-77
2022/12/30 07:56:11;;;;;;;19.15;4.20;;;;;;;;;;5075150;28;20413;-75
2022/12/30 07:58:38;;;;;;;17.05;3.97;;;;;;;;;;5073971;28;20426;-74
2022/12/30 08:01:05;;;;;;;17.83;4.07;;;;;;;;;;5071669;28;20433;-74
2022/12/30 08:03:31;;;;;;;26.75;4.10;;;;;;;;;;5072704;28;20946;-73
2022/12/30 08:05:57;;;;;;;17.75;4.50;;;;;;;;;;5075490;28;20745;-76
2022/12/30 08:08:29;;;;;;;14.10;3.90;;;;;;;;;;5088278;28;20434;-76
2022/12/30 08:10:59;;;;;;;14.73;3.67;;;;;;;;;;5073474;28;20413;-76
2022/12/30 08:13:25;;;;;;;17.45;4.22;;;;;;;;;;5090602;28;20782;-74
2022/12/30 08:15:51;;;;;;;19.08;4.40;;;;;;;;;;5092451;28;20440;-74
2022/12/30 08:18:17;;;;;;;19.83;4.93;;;;;;;;;;5072676;28;20424;-74
2022/12/30 08:20:43;;;;;;;18.27;4.05;;;;;;;;;;5073837;28;21757;-74
2022/12/30 08:23:09;;;;;;;21.10;4.75;;;;;;;;;;5081595;28;20448;-74
2022/12/30 08:25:35;;;;;;;17.77;4.60;;;;;;;;;;5071991;28;20413;-74
2022/12/30 08:28:01;;;;;;;23.27;4.40;;;;;;;;;;5085444;28;20492;-76
2022/12/30 08:30:28;;;;;;;17.90;4.65;;;;;;;;;;5090234;28;20444;-75
2022/12/30 08:32:54;;;;;;;17.90;5.03;;;;;;;;;;5072971;28;20436;-74
2022/12/30 08:35:20;;;;;;;22.60;5.07;;;;;;;;;;5087236;28;20448;-74
2022/12/30 08:37:46;;;;;;;16.35;4.47;;;;;;;;;;5087242;28;20430;-75
2022/12/30 08:40:12;;;;;;;24.17;5.72;;;;;;;;;;5094786;28;20487;-75
2022/12/30 08:42:41;;;;;;;52.33;8.25;;;;;;;;;;5081249;28;20417;-75
2022/12/30 08:45:08;;;;;;;15.90;4.78;;;;;;;;;;5069135;28;20414;-74
2022/12/30 08:47:34;;;;;;;20.77;4.97;;;;;;;;;;5085529;28;20485;-74
2022/12/30 08:50:01;;;;;;;15.93;4.18;;;;;;;;;;5070864;28;20429;-74
2022/12/30 08:52:27;;;;;;;16.98;4.65;;;;;;;;;;5088389;28;20424;-74
2022/12/30 08:54:53;;;;;;;33.53;6.10;;;;;;;;;;5064262;28;20436;-75
2022/12/30 08:57:19;;;;;;;16.98;4.82;;;;;;;;;;5060176;28;20506;-75
2022/12/30 08:59:45;;;;;;;19.58;5.03;;;;;;;;;;5071874;28;20492;-75
2022/12/30 09:02:12;;;;;;;20.30;4.95;;;;;;;;;;5077946;28;20419;-75
2022/12/30 09:04:38;;;;;;;21.70;5.20;;;;;;;;;;5071587;28;20421;-75
2022/12/30 09:07:04;;;;;;;20.88;4.72;;;;;;;;;;5080194;28;20513;-75
2022/12/30 09:09:30;;;;;;;17.60;4.60;;;;;;;;;;5067956;28;20410;-75
2022/12/30 09:11:56;;;;;;;18.93;4.50;;;;;;;;;;5081459;28;20434;-75
2022/12/30 09:14:23;;;;;;;19.55;4.30;;;;;;;;;;5068944;28;20470;-74
2022/12/30 09:16:49;;;;;;;16.90;4.35;;;;;;;;;;5088272;28;20426;-75
2022/12/30 09:19:15;;;;;;;18.63;4.60;;;;;;;;;;5086916;28;20482;-75
2022/12/30 09:21:41;;;;;;;15.30;4.13;;;;;;;;;;5045609;28;20418;-75
2022/12/30 09:24:09;;;;;;;15.07;4.00;;;;;;;;;;5080166;28;20480;-75
2022/12/30 09:26:36;;;;;;;17.48;4.30;;;;;;;;;;5082207;28;20406;-75
2022/12/30 09:29:02;;;;;;;16.63;4.57;;;;;;;;;;5063948;28;20419;-75
2022/12/30 09:31:28;;;;;;;21.50;4.73;;;;;;;;;;5067808;28;20432;-75
2022/12/30 09:33:55;;;;;;;12.55;3.80;;;;;;;;;;5082479;28;20529;-75
2022/12/30 09:36:21;;;;;;;14.95;4.15;;;;;;;;;;5081445;28;20611;-75
2022/12/30 09:38:48;;;;;;;16.63;3.90;;;;;;;;;;5068528;28;20843;-75
2022/12/30 09:44:36;;;;;;;12.93;3.70;;;;;;;;;;5085689;28;20493;-76
2022/12/30 09:47:21;;;;;;;15.40;3.90;;;;;;;;;;5076358;28;20446;-72
2022/12/30 09:49:48;;;;;;;15.60;3.60;;;;;;;;;;5076754;28;20929;-76
2022/12/30 09:53:58;;;;;;;17.23;3.95;;;;;;;;;;5097247;27;20377;-75
2022/12/30 09:56:27;;;;;;;12.05;3.80;;;;;;;;;;5080946;28;20422;-77
2022/12/30 09:58:53;;;;;;;14.52;4.00;;;;;;;;;;5087298;28;20501;-78
2022/12/30 10:01:26;;;;;;;14.10;4.22;;;;;;;;;;5088060;28;20410;-78
2022/12/30 10:03:54;;;;;;;13.07;4.28;;;;;;;;;;5088040;28;20422;-79
2022/12/30 10:06:26;;;;;;;13.63;3.95;;;;;;;;;;5082621;28;20419;-78
2022/12/30 10:09:11;;;;;;;17.08;4.10;;;;;;;;;;5088454;28;20482;-78
2022/12/30 10:11:43;;;;;;;12.40;3.85;;;;;;;;;;5104132;28;20407;-78
2022/12/30 10:14:25;;;;;;;13.25;3.65;;;;;;;;;;5085169;28;20461;-78
2022/12/30 10:17:00;;;;;;;11.77;3.95;;;;;;;;;;5068567;28;20407;-78
2022/12/30 10:19:40;;;;;;;15.10;3.97;;;;;;;;;;5085063;28;20414;-78
2022/12/30 10:22:30;;;;;;;11.30;3.80;;;;;;;;;;5088741;28;20410;-78
2022/12/30 10:25:01;;;;;;;13.55;3.60;;;;;;;;;;5059509;28;20587;-78
2022/12/30 10:27:31;;;;;;;9.48;3.25;;;;;;;;;;5066569;28;20469;-78
2022/12/30 10:29:58;;;;;;;12.93;3.40;;;;;;;;;;5075410;28;20446;-78
2022/12/30 10:32:28;;;;;;;11.68;3.63;;;;;;;;;;5083881;28;20430;-79
2022/12/30 10:34:59;;;;;;;10.73;3.20;;;;;;;;;;5071414;28;20440;-79
2022/12/30 10:37:35;;;;;;;12.15;3.50;;;;;;;;;;5077228;28;20412;-80
2022/12/30 10:40:07;;;;;;;12.32;3.38;;;;;;;;;;5079432;28;20896;-79
2022/12/30 10:42:48;;;;;;;9.90;3.10;;;;;;;;;;5063308;28;20502;-80
2022/12/30 10:45:20;;;;;;;10.60;3.05;;;;;;;;;;5059720;28;20448;-80
2022/12/30 10:47:46;;;;;;;11.38;3.60;;;;;;;;;;5073925;28;20937;-81
2022/12/30 10:50:24;;;;;;;11.15;3.03;;;;;;;;;;5083732;28;20771;-81
2022/12/30 10:52:51;;;;;;;12.93;3.83;;;;;;;;;;5078004;28;20522;-81
2022/12/30 10:55:25;;;;;;;8.57;2.70;;;;;;;;;;5081194;28;20413;-80
2022/12/30 10:57:55;;;;;;;9.40;2.80;;;;;;;;;;5085976;28;20414;-80
2022/12/30 11:00:22;;;;;;;9.85;3.60;;;;;;;;;;5085122;28;20430;-80
2022/12/30 11:02:56;;;;;;;7.80;2.83;;;;;;;;;;5080676;28;20424;-80
2022/12/30 11:05:49;;;;;;;11.85;2.97;;;6.90;99.90;;;;;;5067398;28;20467;-80
2022/12/30 11:08:23;;;;;;;10.07;2.80;;;;;;;;;;5054229;28;20411;-80
2022/12/30 11:11:09;;;;;;;10.13;2.50;;;6.80;99.90;;;;;;5053094;28;20431;-80
2022/12/30 11:16:28;;;;;;;10.35;2.72;;;;;;;;;;5061127;28;20757;-80
2022/12/30 11:18:56;;;;;;;9.60;2.90;;;;;;;;;;5055558;28;20419;-80
2022/12/30 11:21:27;;;;;;;7.33;2.40;;;;;;;;;;5051078;28;20425;-80
2022/12/30 11:23:56;;;;;;;9.27;2.60;;;7.10;99.90;;;;;;5055903;28;20512;-80
2022/12/30 11:26:24;;;;;;;9.13;2.58;;;;;;;;;;5048559;28;20409;-80
2022/12/30 11:28:56;;;;;;;7.05;2.53;;;;;;;;;;5071694;28;20428;-80
2022/12/30 11:31:41;;;;;;;7.00;2.78;;;;;;;;;;5162587;27;20386;-79
2022/12/30 11:34:15;;;;;;;11.40;2.67;;;;;;;;;;5127659;27;20415;-80
2022/12/30 11:36:41;;;;;;;10.95;2.80;;;;;;;;;;5149769;27;20420;-80
2022/12/30 11:39:07;;;;;;;9.05;2.40;;;;;;;;;;5146736;27;20427;-80
2022/12/30 11:43:02;;;;;;;9.20;2.58;;;;;;;;;;5156065;27;20365;-79
2022/12/30 11:45:28;;;;;;;12.13;2.92;;;;;;;;;;5111241;27;20448;-79
2022/12/30 11:47:59;;;;;;;9.77;2.50;;;;;;;;;;5103907;27;20444;-80
2022/12/30 11:51:04;;;;;;;8.35;2.33;;;;;;;;;;5093128;27;20409;-79
2022/12/30 11:53:33;;;;;;;8.13;2.53;;;;;;;;;;5127610;27;20421;-80
2022/12/30 11:56:00;;;;;;;8.27;2.40;;;;;;;;;;5095934;28;20825;-80
2022/12/30 11:58:26;;;;;;;9.80;2.87;;;;;;;;;;5073363;28;20484;-80
2022/12/30 12:00:57;;;;;;;9.38;2.60;;;;;;;;;;5098221;28;20515;-79
2022/12/30 12:03:24;;;;;;;7.38;2.40;;;;;;;;;;5092448;28;20423;-79
2022/12/30 12:06:02;;;;;;;8.48;2.50;;;;;;;;;;5121536;28;20430;-79
2022/12/30 12:08:33;;;;;;;10.30;2.30;;;;;;;;;;5110405;28;20403;-79
2022/12/30 12:11:00;;;;;;;8.02;2.67;;;;;;;;;;5103873;28;20803;-79
2022/12/30 12:13:34;;;;;;;10.00;3.25;;;;;;;;;;5098842;28;20415;-79
2022/12/30 12:16:00;;;;;;;6.17;2.50;;;;;;;;;;5088947;28;20527;-79
2022/12/30 12:18:43;;;;;;;9.52;2.45;;;;;;;;;;5078916;28;20494;-79
2022/12/30 12:21:14;;;;;;;8.73;2.50;;;;;;;;;;5086206;28;20930;-79
2022/12/30 12:24:07;;;;;;;10.18;3.00;;;7.60;99.90;;;;;;5086914;28;20433;-79
2022/12/30 12:26:41;;;;;;;5.38;2.22;;;;;;;;;;5102307;28;20480;-79
2022/12/30 12:29:10;;;;;;;7.63;2.88;;;;;;;;;;5078092;28;20426;-79
2022/12/30 12:31:55;;;;;;;9.57;2.70;;;;;;;;;;5076567;28;20426;-79
2022/12/30 12:34:39;;;;;;;6.32;2.40;;;;;;;;;;5076484;28;20419;-78
2022/12/30 12:37:29;;;;;;;6.28;2.40;;;;;;;;;;5081977;28;20420;-78
2022/12/30 12:40:01;;;;;;;10.32;3.20;;;;;;;;;;5078284;28;20787;-79
2022/12/30 12:42:31;;;;;;;11.50;4.00;;;;;;;;;;5110939;28;20471;-79
2022/12/30 12:44:57;;;;;;;10.00;4.15;;;;;;;;;;5111505;27;20427;-80
2022/12/30 12:47:30;;;;;;;11.07;3.75;;;;;;;;;;5073352;28;20456;-79
2022/12/30 12:49:59;;;;;;;7.50;2.88;;;;;;;;;;5085270;28;20427;-78
2022/12/30 12:52:25;;;;;;;7.40;2.38;;;;;;;;;;5073241;28;20411;-78
2022/12/30 12:55:17;;;;;;;6.57;2.10;;;;;;;;;;5067287;28;20415;-78
2022/12/30 12:57:52;;;;;;;6.40;1.98;;;;;;;;;;5081638;28;20418;-80
2022/12/30 13:00:20;;;;;;;12.52;6.28;;;;;;;;;;5056908;28;20424;-79
2022/12/30 13:03:24;;;;;;;8.83;3.00;;;8.30;99.90;;;;;;5052777;28;20428;-79
2022/12/30 13:06:16;;;;;;;7.87;1.80;;;;;;;;;;5084803;28;20415;-79
2022/12/30 13:09:01;;;;;;;5.95;1.83;;;;;;;;;;5038882;28;20423;-79
2022/12/30 13:11:41;;;;;;;8.52;2.20;;;;;;;;;;5070863;28;20911;-78
2022/12/30 13:14:26;;;;;;;6.65;2.25;;;;;;;;;;5051029;28;20915;-78
2022/12/30 13:16:54;;;;;;;9.27;1.97;;;;;;;;;;5049953;28;20559;-79
2022/12/30 13:20:33;;;;;;;5.95;1.90;;;;;;;;;;5119987;27;20404;-77
2022/12/30 13:25:48;;;;;;;10.60;2.45;;;;;;;;;;5143124;27;20366;-77
2022/12/30 13:28:19;;;;;;;6.55;1.77;;;;;;;;;;5112808;27;20912;-78
2022/12/30 13:30:52;;;;;;;7.83;2.10;;;;;;;;;;5119984;27;20411;-78
2022/12/30 13:33:42;;;;;;;6.93;2.10;;;8.20;99.90;;;;;;5128668;28;20415;-78
2022/12/30 13:36:21;;;;;;;6.05;1.80;;;;;;;;;;5111309;27;20412;-79
2022/12/30 13:38:52;;;;;;;8.00;2.00;;;;;;;;;;5093262;28;20428;-79
2022/12/30 13:41:21;;;;;;;7.57;2.22;;;;;;;;;;5122060;27;20484;-80
2022/12/30 13:43:56;;;;;;;7.45;1.95;;;9.10;99.90;;;;;;5125775;28;20931;-78
2022/12/30 13:46:28;;;;;;;6.18;1.80;;;8.60;99.90;;;;;;5125565;27;20419;-78
2022/12/30 13:49:04;;;;;;;7.80;2.17;;;;;;;;;;5109722;28;20426;-78
2022/12/30 13:51:30;;;;;;;8.52;2.40;;;;;;;;;;5109227;27;20758;-77
2022/12/30 13:54:29;;;;;;;10.15;2.22;;;8.90;99.90;;;;;;5126335;27;20513;-77
2022/12/30 13:56:58;;;;;;;5.68;1.85;;;;;;;;;;5081304;28;20505;-77
2022/12/30 13:59:27;;;;;;;8.93;2.83;;;;;;;;;;5110933;28;20407;-78
2022/12/30 14:02:18;;;;;;;8.65;2.40;;;8.60;99.90;;;;;;5115757;28;20430;-78
2022/12/30 14:05:39;;;;;;;7.35;1.73;;;;;;;;;;5117590;27;2017451;-77
2022/12/30 14:08:18;;;;;;;6.87;2.00;;;;;;;;;;5117950;27;20420;-79
2022/12/30 14:10:46;;;;;;;8.32;2.00;;;;;;;;;;5111899;28;20410;-79
2022/12/30 14:13:12;;;;;;;5.57;1.88;;;;;;;;;;5126509;27;20442;-78
2022/12/30 14:15:41;;;;;;;7.30;2.08;;;;;;;;;;5112404;27;20425;-79
2022/12/30 14:18:14;;;;;;;7.43;2.00;;;;;;;;;;5129235;27;20782;-79
2022/12/30 14:20:41;;;;;;;7.00;1.90;;;;;;;;;;5101174;28;20491;-79
2022/12/30 14:24:02;;;;;;;8.60;2.33;;;;;;;;;;5109292;27;1998605;-78
2022/12/30 14:26:28;;;;;;;6.85;2.28;;;;;;;;;;5144506;27;20419;-78
2022/12/30 14:28:55;;;;;;;7.88;2.10;;;;;;;;;;5130840;27;20443;-78
2022/12/30 14:31:28;;;;;;;8.35;1.90;;;;;;;;;;5130303;27;20412;-78
2022/12/30 14:33:58;;;;;;;6.63;2.25;;;9.40;99.90;;;;;;5112577;27;20472;-78
2022/12/30 14:36:26;;;;;;;7.63;2.40;;;;;;;;;;5135423;27;20438;-77
2022/12/30 14:38:52;;;;;;;8.15;2.33;;;;;;;;;;5142776;27;20409;-77
2022/12/30 14:41:23;;;;;;;7.93;2.35;;;;;;;;;;5129851;27;20406;-77
2022/12/30 14:43:55;;;;;;;5.85;2.00;;;;;;;;;;5132556;27;20823;-78
2022/12/30 14:46:36;;;;;;;5.97;1.73;;;;;;;;;;5144207;27;20447;-78
2022/12/30 14:49:14;;;;;;;7.57;2.30;;;;;;;;;;5139171;27;20404;-78
2022/12/30 14:51:43;;;;;;;8.50;2.33;;;8.70;99.90;;;;;;5136992;27;20402;-75
2022/12/30 14:54:13;;;;;;;6.87;2.10;;;;;;;;;;5115922;27;20426;-75
2022/12/30 14:57:08;;;;;;;6.82;2.20;;;8.50;99.90;;;;;;5134280;27;20406;-75
2022/12/30 14:59:56;;;;;;;6.38;2.58;;;8.60;99.90;;;;;;5129095;27;20741;-77
2022/12/30 15:03:32;;;;;;;7.80;2.20;;;;;;;;;;5116184;27;20710;-78
2022/12/30 15:06:01;;;;;;;7.22;2.03;;;;;;;;;;5112551;27;20510;-78
2022/12/30 15:08:37;;;;;;;6.13;2.00;;;;;;;;;;5113791;27;20420;-78
2022/12/30 15:12:12;;;;;;;7.97;2.13;;;;;;;;;;5119690;27;20920;-78
2022/12/30 15:14:43;;;;;;;5.22;1.90;;;;;;;;;;5090980;28;20529;-78
2022/12/30 15:17:16;;;;;;;5.75;2.17;;;;;;;;;;5100266;28;20501;-79
2022/12/30 15:19:43;;;;;;;6.85;2.00;;;;;;;;;;5141565;27;20454;-77
2022/12/30 15:24:16;;;;;;;6.13;1.95;;;8.40;99.90;;;;;;5079596;27;20898;-76
2022/12/30 15:26:45;;;;;;;5.67;2.20;;;;;;;;;;5068530;28;20450;-77
2022/12/30 15:29:23;;;;;;;5.72;2.33;;;;;;;;;;5052599;28;20435;-77
2022/12/30 15:31:54;;;;;;;6.88;2.55;;;;;;;;;;5052849;28;20768;-76
2022/12/30 15:34:30;;;;;;;5.65;2.20;;;;;;;;;;5035539;28;20432;-77
2022/12/30 15:36:57;;;;;;;8.60;2.92;;;;;;;;;;5033614;28;20430;-78
2022/12/30 15:39:24;;;;;;;6.78;2.60;;;;;;;;;;5053102;28;20531;-79
2022/12/30 15:44:19;;;;;;;6.93;2.88;;;8.60;99.90;;;;;;5118459;27;20365;-77
2022/12/30 15:46:56;;;;;;;6.30;2.80;;;;;;;;;;5102218;28;20620;-77
2022/12/30 15:49:23;;;;;;;6.95;2.95;;;;;;;;;;5101586;28;20408;-75
2022/12/30 15:51:52;;;;;;;6.68;3.17;;;;;;;;;;5101273;28;20410;-75